createdAt,value
2022-12-09T00:03:05.809Z,8.52
2022-12-09T00:08:09.940Z,8.07
2022-12-09T00:13:15.742Z,6.80
2022-12-09T00:18:19.965Z,7.75
2022-12-09T00:23:24.280Z,8.23
2022-12-09T00:28:29.724Z,6.93
2022-12-09T00:33:34.583Z,6.88
2022-12-09T00:38:39.715Z,6.28
2022-12-09T00:43:45.876Z,6.57
2022-12-09T00:48:49.982Z,7.97
2022-12-09T00:53:55.957Z,9.52
2022-12-09T00:59:01.816Z,7.80
2022-12-09T01:04:08.764Z,8.60
2022-12-09T01:09:14.098Z,8.82
2022-12-09T01:14:19.488Z,8.83
2022-12-09T01:19:23.514Z,8.05
2022-12-09T01:24:28.146Z,8.13
2022-12-09T01:29:33.525Z,7.63
2022-12-09T01:34:37.695Z,7.10
2022-12-09T01:39:42.104Z,7.75
2022-12-09T01:45:19.177Z,6.72
2022-12-09T01:50:26.628Z,7.65
2022-12-09T01:55:31.717Z,7.30
2022-12-09T02:00:35.892Z,7.03
2022-12-09T02:05:42.711Z,6.70
2022-12-09T02:10:58.022Z,6.05
2022-12-09T02:16:06.797Z,6.68
2022-12-09T02:21:17.636Z,7.35
2022-12-09T02:26:27.458Z,7.03
2022-12-09T02:31:54.375Z,6.75
2022-12-09T02:37:09.988Z,7.13
2022-12-09T02:42:18.693Z,8.00
2022-12-09T02:47:29.067Z,10.88
2022-12-09T02:52:37.131Z,9.32
2022-12-09T02:57:42.379Z,10.55
2022-12-09T03:02:52.645Z,9.27
2022-12-09T03:08:08.308Z,9.52
2022-12-09T03:13:17.118Z,9.07
2022-12-09T03:18:23.026Z,9.90
2022-12-09T03:23:30.400Z,8.65
2022-12-09T03:28:41.445Z,7.95
2022-12-09T03:33:48.136Z,8.52
2022-12-09T03:38:55.638Z,10.40
2022-12-09T03:44:04.776Z,9.00
2022-12-09T03:49:09.795Z,9.95
2022-12-09T03:54:21.600Z,8.70
2022-12-09T03:59:28.817Z,8.63
2022-12-09T04:04:33.164Z,8.57
2022-12-09T04:09:39.028Z,8.43
2022-12-09T04:14:43.597Z,7.88
2022-12-09T04:19:47.500Z,7.05
2022-12-09T04:24:53.051Z,7.57
2022-12-09T04:29:56.994Z,7.10
2022-12-09T04:35:00.970Z,7.40
2022-12-09T04:40:07.846Z,7.72
2022-12-09T04:45:12.676Z,7.90
2022-12-09T04:50:17.122Z,8.23
2022-12-09T04:55:22.612Z,8.90
2022-12-09T05:00:26.887Z,10.23
2022-12-09T05:05:31.430Z,8.40
2022-12-09T05:10:37.087Z,7.50
2022-12-09T05:15:41.582Z,8.48
2022-12-09T05:20:45.644Z,9.48
2022-12-09T05:25:51.224Z,10.00
2022-12-09T05:31:01.024Z,11.07
2022-12-09T05:36:05.675Z,16.88
2022-12-09T05:41:12.006Z,15.80
2022-12-09T05:51:25.316Z,11.15
2022-12-09T05:56:31.089Z,18.88
2022-12-09T06:06:39.767Z,13.93
2022-12-09T06:11:45.538Z,13.52
2022-12-09T06:16:49.543Z,14.27
2022-12-09T06:21:53.927Z,15.90
2022-12-09T06:26:59.601Z,16.42
2022-12-09T06:32:04.747Z,21.10
2022-12-09T06:37:08.815Z,23.33
2022-12-09T06:42:15.000Z,26.05
2022-12-09T06:52:23.460Z,30.15
2022-12-09T06:57:28.894Z,16.10
2022-12-09T07:02:36.654Z,21.05
2022-12-09T07:07:41.848Z,20.90
2022-12-09T07:12:48.262Z,20.75
2022-12-09T07:22:57.430Z,22.77
2022-12-09T07:28:03.090Z,17.92
2022-12-09T07:38:11.522Z,16.58
2022-12-09T07:43:16.852Z,15.40
2022-12-09T07:48:20.965Z,17.35
2022-12-09T07:53:24.971Z,15.35
2022-12-09T07:58:31.101Z,15.40
2022-12-09T08:03:35.168Z,15.63
2022-12-09T08:08:40.907Z,13.50
2022-12-09T08:13:46.913Z,13.60
2022-12-09T08:18:51.796Z,13.23
2022-12-09T08:23:56.859Z,15.10
2022-12-09T08:29:02.774Z,14.20
2022-12-09T08:39:12.343Z,13.27
2022-12-09T08:44:19.625Z,15.60
2022-12-09T08:49:25.155Z,17.38
2022-12-09T08:54:30.122Z,13.30
2022-12-09T08:59:39.983Z,16.02
2022-12-09T09:04:48.516Z,21.13
2022-12-09T09:09:53.029Z,15.93
2022-12-09T09:14:59.238Z,16.35
2022-12-09T09:20:03.373Z,14.95
2022-12-09T09:25:08.627Z,13.93
2022-12-09T09:30:15.842Z,14.27
2022-12-09T09:35:20.127Z,14.50
2022-12-09T09:40:25.053Z,13.10
2022-12-09T09:45:30.790Z,13.48
2022-12-09T09:50:41.790Z,13.77
2022-12-09T09:55:50.430Z,12.13
2022-12-09T10:01:00.928Z,13.50
2022-12-09T10:06:13.872Z,10.68
2022-12-09T10:11:22.462Z,11.27
2022-12-09T10:16:38.022Z,11.70
2022-12-09T10:21:45.394Z,11.85
2022-12-09T10:26:58.581Z,11.43
2022-12-09T10:32:04.460Z,10.20
2022-12-09T10:37:20.463Z,10.45
2022-12-09T10:42:44.810Z,9.40
2022-12-09T10:47:53.967Z,9.13
2022-12-09T10:53:00.511Z,10.68
2022-12-09T10:58:20.435Z,9.55
2022-12-09T11:03:31.521Z,8.98
2022-12-09T11:08:36.353Z,9.75
2022-12-09T11:13:44.325Z,8.88
2022-12-09T11:18:50.607Z,10.50
2022-12-09T11:24:02.511Z,9.93
2022-12-09T11:29:17.759Z,10.48
2022-12-09T11:34:27.452Z,10.05
2022-12-09T11:39:41.557Z,9.93
2022-12-09T11:44:53.873Z,10.75
2022-12-09T11:50:07.996Z,10.73
2022-12-09T11:55:17.359Z,9.85
2022-12-09T12:00:25.185Z,9.68
2022-12-09T12:05:35.609Z,11.93
2022-12-09T12:10:43.655Z,9.85
2022-12-09T12:16:00.683Z,10.55
2022-12-09T12:21:42.897Z,11.82
2022-12-09T12:26:55.870Z,11.68
2022-12-09T12:32:25.519Z,12.55
2022-12-09T12:37:45.771Z,37.00
2022-12-09T12:43:21.277Z,14.90
2022-12-09T12:48:34.176Z,14.85
2022-12-09T12:53:46.968Z,14.38
2022-12-09T12:59:03.883Z,15.75
2022-12-09T13:04:20.960Z,15.75
2022-12-09T13:09:35.391Z,16.23
2022-12-09T13:14:53.599Z,15.75
2022-12-09T13:20:02.261Z,17.02
2022-12-09T13:25:18.417Z,15.40
2022-12-09T13:35:35.838Z,17.23
2022-12-09T13:40:41.191Z,17.40
2022-12-09T13:45:52.270Z,15.85
2022-12-09T13:50:59.699Z,17.00
2022-12-09T13:56:08.050Z,22.85
2022-12-09T14:01:23.174Z,20.17
2022-12-09T14:06:32.337Z,18.15
2022-12-09T14:11:49.226Z,18.52
2022-12-09T14:16:54.358Z,17.38
2022-12-09T14:22:31.458Z,18.50
2022-12-09T14:27:36.875Z,16.00
2022-12-09T14:32:55.204Z,18.40
2022-12-09T14:38:11.285Z,21.55
2022-12-09T14:48:41.649Z,20.33
2022-12-09T14:53:49.508Z,18.33
2022-12-09T14:58:57.504Z,19.83
2022-12-09T15:04:03.049Z,22.48
2022-12-09T15:09:07.133Z,25.02
2022-12-09T15:14:25.217Z,23.08
2022-12-09T15:24:57.154Z,25.08
2022-12-09T15:30:01.648Z,30.25
2022-12-09T15:35:26.451Z,32.92
2022-12-09T15:40:34.538Z,31.38
2022-12-09T15:45:44.347Z,31.58
2022-12-09T15:50:54.277Z,30.60
2022-12-09T15:56:01.917Z,31.63
2022-12-09T16:01:06.131Z,36.00
2022-12-09T16:06:11.677Z,34.90
2022-12-09T16:11:35.117Z,37.10
2022-12-09T16:16:43.996Z,37.55
2022-12-09T16:21:54.947Z,35.00
2022-12-09T16:27:00.171Z,30.92
2022-12-09T16:32:23.811Z,32.40
2022-12-09T16:37:42.254Z,34.22
2022-12-09T16:42:46.275Z,29.52
2022-12-09T16:47:54.593Z,31.40
2022-12-09T16:53:01.637Z,31.98
2022-12-09T16:58:05.943Z,30.40
2022-12-09T17:03:17.127Z,27.35
2022-12-09T17:08:22.745Z,24.77
2022-12-09T17:13:26.613Z,23.38
2022-12-09T17:18:30.901Z,20.80
2022-12-09T17:23:39.946Z,22.77
2022-12-09T17:28:45.993Z,23.20
2022-12-09T17:33:50.315Z,22.60
2022-12-09T17:38:55.851Z,24.73
2022-12-09T17:44:02.032Z,25.73
2022-12-09T17:49:06.021Z,25.45
2022-12-09T17:54:11.478Z,25.02
2022-12-09T17:59:17.635Z,22.30
2022-12-09T18:04:21.597Z,23.10
2022-12-09T18:09:27.055Z,27.08
2022-12-09T18:14:31.258Z,30.20
2022-12-09T18:19:35.538Z,29.88
2022-12-09T18:24:42.187Z,26.08
2022-12-09T18:29:46.558Z,23.83
2022-12-09T18:34:51.115Z,25.67
2022-12-09T18:45:05.575Z,27.48
2022-12-09T18:50:10.577Z,29.08
2022-12-09T18:55:16.134Z,26.55
2022-12-09T19:00:20.589Z,27.05
2022-12-09T19:05:24.498Z,25.70
2022-12-09T19:10:29.846Z,26.00
2022-12-09T19:15:33.880Z,24.48
2022-12-09T19:20:38.039Z,23.73
2022-12-09T19:25:43.463Z,22.13
2022-12-09T19:30:49.926Z,25.60
2022-12-09T19:35:54.832Z,21.83
2022-12-09T19:41:02.736Z,25.30
2022-12-09T19:46:08.877Z,26.70
2022-12-09T19:51:15.795Z,24.15
2022-12-09T19:56:21.764Z,24.02
2022-12-09T20:01:28.037Z,25.52
2022-12-09T20:06:32.538Z,28.30
2022-12-09T20:11:38.385Z,27.40
2022-12-09T20:16:42.946Z,26.67
2022-12-09T20:21:47.260Z,23.20
2022-12-09T20:26:52.788Z,23.70
2022-12-09T20:31:57.155Z,23.30
2022-12-09T20:37:02.941Z,22.63
2022-12-09T20:47:12.860Z,19.88
2022-12-09T20:52:16.842Z,20.88
2022-12-09T20:57:22.215Z,17.23
2022-12-09T21:02:26.186Z,17.35
2022-12-09T21:07:45.090Z,15.85
2022-12-09T21:12:50.450Z,15.45
2022-12-09T21:17:55.216Z,14.32
2022-12-09T21:23:25.117Z,15.93
2022-12-09T21:28:24.466Z,13.90
2022-12-09T21:33:28.469Z,13.25
2022-12-09T21:38:32.565Z,12.02
2022-12-09T21:43:39.059Z,11.75
2022-12-09T21:48:43.384Z,12.98
2022-12-09T21:53:47.871Z,11.23
2022-12-09T21:58:55.206Z,11.10
2022-12-09T22:04:00.656Z,13.43
2022-12-09T22:09:07.087Z,12.57
2022-12-09T22:14:12.509Z,12.13
2022-12-09T22:19:18.350Z,11.40
2022-12-09T22:24:22.336Z,11.52
2022-12-09T22:29:34.160Z,12.05
2022-12-09T22:34:40.887Z,13.13
2022-12-09T22:39:47.641Z,12.90
2022-12-09T22:44:53.049Z,13.88
2022-12-09T22:49:57.311Z,12.85
2022-12-09T22:55:08.488Z,13.27
2022-12-09T23:00:14.666Z,15.07
2022-12-09T23:05:18.915Z,14.95
2022-12-09T23:10:22.849Z,13.50
2022-12-09T23:15:28.234Z,12.85
2022-12-09T23:20:32.415Z,14.25
2022-12-09T23:25:36.626Z,13.65
2022-12-09T23:30:41.997Z,12.85
2022-12-09T23:35:45.865Z,13.30
2022-12-09T23:40:53.466Z,11.43
2022-12-09T23:46:01.156Z,11.13
2022-12-09T23:51:10.862Z,11.43
2022-12-09T23:56:16.987Z,11.18
